Página principal
METAR-TAF:

METAR-TAF

Aeroportos :

Madrid-Cuatro Vientos, Espanha

latitude: 40-23N, longitude: 003-47W, altura: 690 m

Observação actual do tempo

O boletim foi feito há 47 minutos, às 23:30 UTC
Vento 4 kt de norte, variando entre nor-noroeste e es-nordeste
Temperatura 26°C
Humidade 23%
Pressão 1021 hPa
Visibilidade: 9000 m

METAR: LEVS 222330Z AUTO 01004KT 330V060 9000 NCD 26/03 Q1021

Hora: 02:17 (00:17 UTC)

Previsão

O boletim foi feito há 1 hora e 17 minutos, às 23:00 UTC
Previsão válida de 23 às 00 UTC a 23 às 24 UTC
Vento 6 kt de nordeste
Visibilidade 10 km ou mais
sem nuvens abaixo de 1500 metros e sem cumulonimbus
Temporariamente
de 23 às 00 UTC a 23 às 06 UTC
Vento 10 kt de nor-nordeste

TAF: LEVS 222300Z 2300/2324 05006KT CAVOK TX38/2315Z TN22/2304Z TEMPO 2300/2306 03010KT

Observações e previsões do tempo de mais de 4000 aeroportos (mensagens METAR e TAF).

As estações disponíveis são os pontos amarelos e vermelhos sobre o mapa.

Mova o rato sobre o mapa para ver o nome da estação.

Depois clique no ponto para visualizar as observações e previsões meteorológicas.

Para alterar o mapa : clique nos botões verdes com uma cruz preta para aumentar o zoom; no botão verde com uma pitada de zoom; ou nas setas verdes para mapas adjacentes.


METAR-TAF: